createdAt,value
2018-05-27T00:00:12.204Z,21.64
2018-05-27T00:02:08.185Z,21.68
2018-05-27T00:03:08.650Z,21.73
2018-05-27T00:05:04.112Z,21.70
2018-05-27T00:06:04.620Z,21.71
2018-05-27T00:08:03.065Z,21.66
2018-05-27T00:09:03.056Z,21.59
2018-05-27T00:10:58.951Z,21.70
2018-05-27T00:11:57.992Z,21.67
2018-05-27T00:13:54.473Z,21.66
2018-05-27T00:14:53.950Z,21.62
2018-05-27T00:16:50.435Z,21.59
2018-05-27T00:17:49.905Z,21.55
2018-05-27T00:19:46.372Z,21.46
2018-05-27T00:20:45.852Z,21.49
2018-05-27T00:22:42.826Z,21.61
2018-05-27T00:23:41.815Z,21.58
2018-05-27T00:25:39.282Z,21.59
2018-05-27T00:26:37.766Z,21.64
2018-05-27T00:28:33.750Z,21.46
2018-05-27T00:29:34.735Z,21.51
2018-05-27T00:31:29.662Z,21.58
2018-05-27T00:32:30.193Z,21.62
2018-05-27T00:34:25.605Z,21.66
2018-05-27T00:35:25.636Z,21.78
2018-05-27T00:37:22.090Z,21.71
2018-05-27T00:38:22.069Z,21.76
2018-05-27T00:40:16.030Z,21.76
2018-05-27T00:41:16.005Z,21.71
2018-05-27T00:43:11.975Z,21.80
2018-05-27T00:44:11.974Z,21.71
2018-05-27T00:46:08.457Z,21.76
2018-05-27T00:47:07.946Z,21.68
2018-05-27T00:49:05.415Z,21.67
2018-05-27T00:50:03.899Z,21.51
2018-05-27T00:51:59.891Z,21.43
2018-05-27T00:52:59.844Z,21.38
2018-05-27T00:54:56.813Z,21.38
2018-05-27T00:55:55.829Z,21.34
2018-05-27T00:57:52.309Z,21.36
2018-05-27T00:58:51.784Z,21.37
2018-05-27T01:00:47.767Z,21.33
2018-05-27T01:01:47.706Z,21.40
2018-05-27T01:03:43.669Z,21.37
2018-05-27T01:04:43.667Z,21.36
2018-05-27T01:06:39.640Z,21.43
2018-05-27T01:07:39.626Z,21.41
2018-05-27T01:09:35.571Z,21.52
2018-05-27T01:10:35.593Z,21.49
2018-05-27T01:12:31.557Z,21.51
2018-05-27T01:13:31.546Z,21.48
2018-05-27T01:15:27.524Z,21.64
2018-05-27T01:16:27.518Z,21.46
2018-05-27T01:18:23.505Z,21.66
2018-05-27T01:19:23.498Z,21.48
2018-05-27T01:21:19.945Z,21.52
2018-05-27T01:22:19.955Z,21.46
2018-05-27T01:24:15.359Z,21.45
2018-05-27T01:25:15.378Z,21.46
2018-05-27T01:27:11.366Z,21.49
2018-05-27T01:28:11.324Z,21.43
2018-05-27T01:30:06.285Z,21.46
2018-05-27T01:31:06.284Z,21.40
2018-05-27T01:33:01.735Z,21.37
2018-05-27T01:34:01.727Z,21.41
2018-05-27T01:35:58.196Z,21.38
2018-05-27T01:36:57.678Z,21.45
2018-05-27T01:38:53.653Z,21.37
2018-05-27T01:39:53.652Z,21.41
2018-05-27T01:41:49.626Z,21.48
2018-05-27T01:42:49.617Z,21.45
2018-05-27T01:44:45.561Z,21.41
2018-05-27T01:45:47.056Z,21.37
2018-05-27T01:47:42.030Z,21.49
2018-05-27T01:48:41.487Z,21.38
2018-05-27T01:50:37.437Z,21.38
2018-05-27T01:51:37.441Z,21.38
2018-05-27T01:53:33.451Z,21.46
2018-05-27T01:54:33.927Z,21.43
2018-05-27T01:56:29.854Z,21.43
2018-05-27T01:57:29.879Z,21.36
2018-05-27T01:59:25.814Z,21.34
2018-05-27T02:00:25.297Z,21.37
2018-05-27T02:02:21.274Z,21.34
2018-05-27T02:03:21.259Z,21.34
2018-05-27T02:05:18.756Z,21.40
2018-05-27T02:06:17.230Z,21.37
2018-05-27T02:08:13.163Z,21.36
2018-05-27T02:09:13.175Z,21.33
2018-05-27T02:11:09.097Z,21.37
2018-05-27T02:12:09.095Z,21.46
2018-05-27T02:14:11.074Z,21.48
2018-05-27T02:15:06.049Z,21.45
2018-05-27T02:17:01.064Z,21.55
2018-05-27T02:18:01.026Z,21.51
2018-05-27T02:19:59.507Z,21.43
2018-05-27T02:20:59.207Z,21.34
2018-05-27T02:22:55.126Z,21.38
2018-05-27T02:23:55.139Z,21.43
2018-05-27T02:25:53.649Z,21.30
2018-05-27T02:26:51.115Z,21.31
2018-05-27T02:28:47.048Z,21.33
2018-05-27T02:29:47.066Z,21.31
2018-05-27T02:31:43.071Z,21.33
2018-05-27T02:32:43.518Z,21.36
2018-05-27T02:34:39.977Z,21.25
2018-05-27T02:35:39.977Z,21.27
2018-05-27T02:37:34.993Z,21.23
2018-05-27T02:38:34.980Z,21.19
2018-05-27T02:40:30.954Z,21.18
2018-05-27T02:41:30.955Z,21.21
2018-05-27T02:43:26.933Z,21.21
2018-05-27T02:44:26.915Z,21.16
2018-05-27T02:46:23.392Z,21.09
2018-05-27T02:47:22.867Z,21.13
2018-05-27T02:49:18.819Z,21.12
2018-05-27T02:50:18.842Z,21.12
2018-05-27T02:52:14.811Z,21.27
2018-05-27T02:53:14.805Z,21.09
2018-05-27T02:55:10.815Z,21.09
2018-05-27T02:57:27.258Z,21.13
2018-05-27T02:58:26.728Z,21.15
2018-05-27T03:00:23.253Z,21.11
2018-05-27T03:01:23.623Z,21.18
2018-05-27T03:03:18.690Z,21.16
2018-05-27T03:04:18.655Z,21.06
2018-05-27T03:06:14.636Z,21.09
2018-05-27T03:07:14.616Z,21.15
2018-05-27T03:09:10.598Z,21.08
2018-05-27T03:10:10.587Z,21.06
2018-05-27T03:12:07.080Z,21.03
2018-05-27T03:14:26.545Z,21.01
2018-05-27T03:15:26.032Z,21.04
2018-05-27T03:17:20.007Z,21.18
2018-05-27T03:18:20.492Z,21.16
2018-05-27T03:20:15.974Z,21.12
2018-05-27T03:21:15.938Z,21.12
2018-05-27T03:23:11.926Z,21.19
2018-05-27T03:24:11.913Z,21.19
2018-05-27T03:26:07.880Z,21.12
2018-05-27T03:27:07.854Z,21.18
2018-05-27T03:29:04.333Z,21.21
2018-05-27T03:30:03.840Z,21.13
2018-05-27T03:31:59.853Z,21.22
2018-05-27T03:33:00.309Z,21.21
2018-05-27T03:34:55.732Z,21.25
2018-05-27T03:35:55.758Z,21.23
2018-05-27T03:37:51.730Z,21.22
2018-05-27T03:38:51.700Z,21.11
2018-05-27T03:40:48.184Z,21.12
2018-05-27T03:41:48.186Z,21.18
2018-05-27T03:43:43.615Z,21.12
2018-05-27T03:44:44.581Z,21.11
2018-05-27T03:46:41.539Z,21.19
2018-05-27T03:47:41.564Z,21.08
2018-05-27T03:49:40.077Z,21.16
2018-05-27T03:50:37.506Z,21.16
2018-05-27T03:52:33.973Z,21.15
2018-05-27T03:53:34.503Z,21.11
2018-05-27T03:55:31.937Z,21.15
2018-05-27T03:56:31.436Z,21.16
2018-05-27T03:58:28.388Z,21.11
2018-05-27T03:59:28.402Z,21.11
2018-05-27T04:01:23.338Z,21.12
2018-05-27T04:02:23.356Z,21.13
2018-05-27T04:04:19.308Z,21.06
2018-05-27T04:05:19.791Z,21.01
2018-05-27T04:07:15.255Z,20.98
2018-05-27T04:08:15.258Z,21.01
2018-05-27T04:10:11.191Z,20.98
2018-05-27T04:11:11.211Z,21.03
2018-05-27T04:13:07.157Z,20.97
2018-05-27T04:14:07.652Z,21.00
2018-05-27T04:16:03.145Z,20.97
2018-05-27T04:17:03.108Z,21.00
2018-05-27T04:18:59.570Z,20.97
2018-05-27T04:19:59.060Z,21.01
2018-05-27T04:21:55.033Z,20.97
2018-05-27T04:22:55.045Z,20.93
2018-05-27T04:24:54.074Z,21.00
2018-05-27T04:25:51.506Z,20.96
2018-05-27T04:27:46.970Z,20.97
2018-05-27T04:28:47.475Z,21.00
2018-05-27T04:30:42.948Z,21.00
2018-05-27T04:31:42.963Z,20.96
2018-05-27T04:33:38.945Z,20.98
2018-05-27T04:34:38.906Z,21.01
2018-05-27T04:36:36.439Z,21.22
2018-05-27T04:37:34.857Z,21.23
2018-05-27T04:39:33.323Z,21.25
2018-05-27T04:40:31.824Z,21.25
2018-05-27T04:42:28.791Z,21.36
2018-05-27T04:43:28.797Z,21.56
2018-05-27T04:45:24.735Z,21.78
2018-05-27T04:46:24.738Z,21.94
2018-05-27T04:48:20.716Z,22.16
2018-05-27T04:49:20.704Z,22.27
2018-05-27T04:51:16.622Z,22.51
2018-05-27T04:52:16.621Z,22.63
2018-05-27T04:54:16.625Z,22.79
2018-05-27T04:55:15.593Z,23.01
2018-05-27T04:57:13.218Z,23.10
2018-05-27T04:58:12.712Z,23.07
2018-05-27T05:00:08.677Z,23.21
2018-05-27T05:01:08.669Z,23.28
2018-05-27T05:03:05.150Z,23.40
2018-05-27T05:05:28.651Z,23.63
2018-05-27T05:06:20.599Z,23.66
2018-05-27T05:08:16.555Z,23.71
2018-05-27T05:09:16.577Z,23.71
2018-05-27T05:11:12.564Z,23.74
2018-05-27T05:12:14.059Z,23.74
2018-05-27T05:14:09.962Z,23.85
2018-05-27T05:15:08.471Z,23.82
2018-05-27T05:17:06.414Z,23.63
2018-05-27T05:18:06.407Z,23.50
2018-05-27T05:20:02.909Z,23.26
2018-05-27T05:21:02.407Z,23.29
2018-05-27T05:22:58.382Z,23.24
2018-05-27T05:23:58.857Z,23.29
2018-05-27T05:25:54.294Z,23.32
2018-05-27T05:26:54.302Z,23.34
2018-05-27T05:28:50.243Z,23.25
2018-05-27T05:29:51.195Z,23.14
2018-05-27T05:31:46.240Z,23.37
2018-05-27T05:32:46.177Z,23.38
2018-05-27T05:34:43.137Z,23.62
2018-05-27T05:35:42.143Z,23.59
2018-05-27T05:37:38.618Z,23.82
2018-05-27T05:38:38.638Z,23.85
2018-05-27T05:40:34.090Z,24.07
2018-05-27T05:41:34.068Z,24.18
2018-05-27T05:43:30.534Z,24.42
2018-05-27T05:44:30.544Z,24.36
2018-05-27T05:46:26.596Z,24.54
2018-05-27T05:47:26.028Z,24.61
2018-05-27T05:49:22.032Z,24.61
2018-05-27T05:50:21.983Z,24.64
2018-05-27T05:52:17.974Z,24.58
2018-05-27T05:53:18.452Z,24.63
2018-05-27T05:55:13.945Z,24.56
2018-05-27T05:56:13.910Z,24.40
2018-05-27T05:58:11.881Z,24.29
2018-05-27T05:59:11.890Z,24.30
2018-05-27T06:01:08.390Z,24.39
2018-05-27T06:02:07.797Z,24.51
2018-05-27T06:04:03.791Z,24.67
2018-05-27T06:05:03.775Z,24.54
2018-05-27T06:06:59.775Z,24.78
2018-05-27T06:07:59.762Z,24.77
2018-05-27T06:09:58.236Z,24.56
2018-05-27T06:10:57.901Z,24.61
2018-05-27T06:12:54.872Z,24.54
2018-05-27T06:13:54.367Z,24.56
2018-05-27T06:15:50.833Z,24.51
2018-05-27T06:16:49.871Z,24.55
2018-05-27T06:18:45.831Z,24.67
2018-05-27T06:19:45.830Z,24.67
2018-05-27T06:21:44.298Z,24.63
2018-05-27T06:22:43.781Z,24.77
2018-05-27T06:24:39.713Z,24.82
2018-05-27T06:25:39.725Z,24.92
2018-05-27T06:27:35.708Z,24.93
2018-05-27T06:28:36.203Z,25.01
2018-05-27T06:30:31.818Z,25.15
2018-05-27T06:31:31.837Z,25.20
2018-05-27T06:33:28.803Z,25.22
2018-05-27T06:34:28.812Z,25.12
2018-05-27T06:36:23.780Z,25.19
2018-05-27T06:37:23.777Z,25.01
2018-05-27T06:39:21.174Z,25.01
2018-05-27T06:40:19.741Z,25.07
2018-05-27T06:42:15.702Z,24.93
2018-05-27T06:43:16.718Z,24.78
2018-05-27T06:45:11.711Z,24.69
2018-05-27T06:46:12.710Z,24.78
2018-05-27T06:48:07.680Z,24.93
2018-05-27T06:49:08.176Z,24.93
2018-05-27T06:51:04.635Z,24.90
2018-05-27T06:52:03.590Z,24.92
2018-05-27T06:53:59.576Z,24.93
2018-05-27T06:54:59.551Z,25.04
2018-05-27T06:56:57.576Z,25.05
2018-05-27T06:57:57.512Z,25.04
2018-05-27T06:59:53.982Z,25.08
2018-05-27T07:00:54.971Z,25.08
2018-05-27T07:02:49.955Z,24.97
2018-05-27T07:03:49.458Z,24.96
2018-05-27T07:05:46.919Z,24.97
2018-05-27T07:06:46.415Z,24.86
2018-05-27T07:08:42.444Z,24.92
2018-05-27T07:09:42.378Z,25.08
2018-05-27T07:11:40.361Z,25.23
2018-05-27T07:12:40.299Z,25.24
2018-05-27T07:14:45.272Z,25.42
2018-05-27T07:15:37.193Z,25.51
2018-05-27T07:17:32.213Z,25.54
2018-05-27T07:18:33.741Z,25.54
2018-05-27T07:20:28.184Z,25.69
2018-05-27T07:21:28.193Z,25.70
2018-05-27T07:23:24.134Z,25.71
2018-05-27T07:24:24.155Z,25.78
2018-05-27T07:26:25.138Z,25.94
2018-05-27T07:27:20.107Z,26.04
2018-05-27T07:29:17.083Z,26.20
2018-05-27T07:30:16.092Z,26.17
2018-05-27T07:32:15.137Z,26.16
2018-05-27T07:33:14.143Z,26.12
2018-05-27T07:35:11.536Z,26.27
2018-05-27T07:36:11.041Z,26.19
2018-05-27T07:38:07.003Z,25.81
2018-05-27T07:40:27.464Z,25.63
2018-05-27T07:41:24.962Z,25.79
2018-05-27T07:43:21.944Z,26.06
2018-05-27T07:44:21.965Z,26.00
2018-05-27T07:46:19.854Z,25.89
2018-05-27T07:47:18.921Z,25.82
2018-05-27T07:49:13.867Z,26.06
2018-05-27T07:50:13.888Z,26.12
2018-05-27T07:52:12.865Z,26.17
2018-05-27T07:53:10.864Z,26.22
2018-05-27T07:55:05.865Z,26.37
2018-05-27T07:56:05.846Z,26.35
2018-05-27T07:58:03.320Z,26.32
2018-05-27T07:59:02.819Z,26.16
2018-05-27T08:00:58.303Z,25.76
2018-05-27T08:01:57.779Z,25.66
2018-05-27T08:03:54.226Z,25.62
2018-05-27T08:04:53.726Z,25.62
2018-05-27T08:06:49.696Z,25.62
2018-05-27T08:07:49.695Z,25.75
2018-05-27T08:09:45.652Z,25.91
2018-05-27T08:10:45.659Z,25.91
2018-05-27T08:12:42.625Z,26.04
2018-05-27T08:13:41.640Z,26.17
2018-05-27T08:15:37.627Z,26.11
2018-05-27T08:16:37.617Z,26.26
2018-05-27T08:18:33.582Z,26.38
2018-05-27T08:19:33.603Z,26.45
2018-05-27T08:21:29.561Z,26.42
2018-05-27T08:22:29.556Z,26.53
2018-05-27T08:24:25.517Z,26.56
2018-05-27T08:25:25.531Z,26.63
2018-05-27T08:27:22.491Z,26.63
2018-05-27T08:28:21.506Z,26.61
2018-05-27T08:30:18.473Z,26.81
2018-05-27T08:31:17.500Z,26.78
2018-05-27T08:33:13.520Z,27.00
2018-05-27T08:34:14.456Z,27.01
2018-05-27T08:36:09.941Z,27.13
2018-05-27T08:38:25.358Z,27.33
2018-05-27T08:39:25.894Z,27.34
2018-05-27T08:41:21.328Z,27.57
2018-05-27T08:42:21.854Z,27.59
2018-05-27T08:44:17.279Z,27.74
2018-05-27T08:45:17.280Z,27.76
2018-05-27T08:47:16.273Z,27.87
2018-05-27T08:48:16.264Z,27.91
2018-05-27T08:50:11.905Z,27.80
2018-05-27T08:51:11.416Z,27.91
2018-05-27T08:53:07.378Z,27.91
2018-05-27T08:54:07.876Z,28.02
2018-05-27T08:56:03.840Z,28.26
2018-05-27T08:57:03.361Z,28.33
2018-05-27T08:59:00.856Z,28.30
2018-05-27T09:00:00.325Z,28.41
2018-05-27T09:01:56.817Z,28.46
2018-05-27T09:02:55.334Z,28.35
2018-05-27T09:04:57.341Z,28.23
2018-05-27T09:05:55.812Z,28.18
2018-05-27T09:07:54.285Z,28.02
2018-05-27T09:08:53.801Z,27.96
2018-05-27T09:10:49.750Z,27.90
2018-05-27T09:11:50.304Z,28.02
2018-05-27T09:13:54.769Z,28.28
2018-05-27T09:14:55.240Z,28.48
2018-05-27T09:16:55.724Z,28.73
2018-05-27T09:17:55.200Z,28.75
2018-05-27T09:19:56.703Z,28.88
2018-05-27T09:20:55.172Z,28.80
2018-05-27T09:22:56.185Z,28.90
2018-05-27T09:23:56.641Z,28.83
2018-05-27T09:25:56.255Z,28.83
2018-05-27T09:26:56.152Z,28.88
2018-05-27T09:28:56.649Z,28.73
2018-05-27T09:29:56.646Z,28.68
2018-05-27T09:31:58.105Z,28.78
2018-05-27T09:32:57.419Z,28.91
2018-05-27T09:34:55.969Z,29.10
2018-05-27T09:35:56.310Z,29.02
2018-05-27T09:37:54.304Z,28.91
2018-05-27T09:38:55.317Z,28.72
2018-05-27T09:40:54.040Z,28.53
2018-05-27T09:41:53.872Z,28.68
2018-05-27T09:43:49.874Z,28.60
2018-05-27T09:44:50.002Z,28.64
2018-05-27T09:46:50.829Z,28.55
2018-05-27T09:47:50.322Z,28.48
2018-05-27T09:49:49.279Z,28.67
2018-05-27T09:50:48.490Z,28.78
2018-05-27T09:52:48.067Z,28.98
2018-05-27T09:53:47.533Z,29.02
2018-05-27T09:55:47.609Z,29.20
2018-05-27T09:56:47.254Z,29.17
2018-05-27T09:58:45.572Z,29.10
2018-05-27T09:59:45.076Z,29.08
2018-05-27T10:01:43.003Z,29.36
2018-05-27T10:02:43.481Z,29.54
2018-05-27T10:04:43.533Z,29.55
2018-05-27T10:05:45.009Z,29.51
2018-05-27T10:07:46.871Z,29.65
2018-05-27T10:08:45.068Z,29.69
2018-05-27T10:10:45.467Z,29.65
2018-05-27T10:11:45.700Z,29.70
2018-05-27T10:13:47.520Z,29.81
2018-05-27T10:14:47.202Z,29.94
2018-05-27T10:16:48.480Z,30.18
2018-05-27T10:17:46.513Z,30.10
2018-05-27T10:19:46.972Z,30.39
2018-05-27T10:20:47.139Z,30.35
2018-05-27T10:22:49.500Z,30.54
2018-05-27T10:23:48.913Z,30.57
2018-05-27T10:25:48.901Z,30.62
2018-05-27T10:26:49.488Z,30.67
2018-05-27T10:28:49.900Z,30.56
2018-05-27T10:29:50.869Z,30.45
2018-05-27T10:31:50.936Z,30.45
2018-05-27T10:32:53.356Z,30.37
2018-05-27T10:34:52.325Z,30.45
2018-05-27T10:35:53.394Z,30.39
2018-05-27T10:37:58.044Z,30.34
2018-05-27T10:38:55.363Z,30.35
2018-05-27T10:40:56.291Z,30.28
2018-05-27T10:41:55.817Z,30.32
2018-05-27T10:43:56.308Z,30.40
2018-05-27T10:44:56.434Z,30.39
2018-05-27T10:46:57.012Z,30.29
2018-05-27T10:47:56.848Z,30.28
2018-05-27T10:49:58.769Z,30.10
2018-05-27T10:50:59.313Z,29.94
2018-05-27T10:52:58.790Z,29.70
2018-05-27T10:53:58.676Z,29.70
2018-05-27T10:55:59.281Z,29.75
2018-05-27T10:57:01.263Z,29.67
2018-05-27T10:58:59.702Z,29.52
2018-05-27T11:00:00.688Z,29.55
2018-05-27T11:02:07.422Z,29.33
2018-05-27T11:03:00.177Z,29.21
2018-05-27T11:05:00.685Z,29.10
2018-05-27T11:06:01.572Z,29.02
2018-05-27T11:08:04.218Z,29.02
2018-05-27T11:09:01.174Z,29.05
2018-05-27T11:11:01.741Z,28.91
2018-05-27T11:12:02.538Z,28.94
2018-05-27T11:14:03.635Z,28.92
2018-05-27T11:15:02.275Z,29.05
2018-05-27T11:17:03.187Z,28.90
2018-05-27T11:18:02.757Z,28.79
2018-05-27T11:20:03.472Z,28.61
2018-05-27T11:21:03.743Z,28.58
2018-05-27T11:23:04.951Z,28.20
2018-05-27T11:24:05.790Z,28.05
2018-05-27T11:26:07.198Z,27.75
2018-05-27T11:27:06.369Z,27.55
2018-05-27T11:29:05.807Z,27.37
2018-05-27T11:30:06.788Z,27.26
2018-05-27T11:32:07.937Z,27.18
2018-05-27T11:33:06.226Z,27.15
2018-05-27T11:35:06.678Z,27.04
2018-05-27T11:36:06.674Z,26.97
2018-05-27T11:38:07.312Z,26.79
2018-05-27T11:39:08.129Z,26.86
2018-05-27T11:41:03.187Z,26.59
2018-05-27T11:42:03.651Z,26.68
2018-05-27T11:44:04.537Z,26.68
2018-05-27T11:45:03.633Z,26.53
2018-05-27T11:47:04.525Z,26.53
2018-05-27T11:48:04.081Z,26.49
2018-05-27T11:50:05.637Z,26.41
2018-05-27T11:51:05.524Z,26.49
2018-05-27T11:53:03.526Z,26.53
2018-05-27T11:54:03.487Z,26.50
2018-05-27T11:56:05.982Z,26.60
2018-05-27T11:57:04.007Z,26.68
2018-05-27T11:59:04.416Z,26.47
2018-05-27T12:00:04.506Z,26.47
2018-05-27T12:02:05.071Z,26.38
2018-05-27T12:03:06.915Z,26.20
2018-05-27T12:05:05.474Z,26.07
2018-05-27T12:06:05.395Z,25.93
2018-05-27T12:08:05.881Z,25.84
2018-05-27T12:09:06.906Z,25.81
2018-05-27T12:11:06.902Z,25.76
2018-05-27T12:12:06.884Z,25.71
2018-05-27T12:14:06.912Z,25.63
2018-05-27T12:15:07.801Z,25.67
2018-05-27T12:17:07.883Z,25.51
2018-05-27T12:18:07.262Z,25.48
2018-05-27T12:20:08.752Z,25.44
2018-05-27T12:21:07.794Z,25.44
2018-05-27T12:23:08.233Z,25.42
2018-05-27T12:24:08.291Z,25.23
2018-05-27T12:26:09.669Z,25.14
2018-05-27T12:27:09.672Z,25.11
2018-05-27T12:29:05.666Z,25.02
2018-05-27T12:30:05.671Z,25.05
2018-05-27T12:32:04.135Z,24.96
2018-05-27T12:33:03.590Z,24.94
2018-05-27T12:35:00.128Z,24.92
2018-05-27T12:35:59.582Z,24.92
2018-05-27T12:37:57.675Z,24.78
2018-05-27T12:38:57.530Z,24.75
2018-05-27T12:40:54.514Z,24.80
2018-05-27T12:41:55.006Z,24.63
2018-05-27T12:43:54.933Z,24.74
2018-05-27T12:44:54.927Z,24.59
2018-05-27T12:46:53.416Z,24.58
2018-05-27T12:47:52.898Z,24.58
2018-05-27T12:49:53.413Z,24.49
2018-05-27T12:50:53.393Z,24.46
2018-05-27T12:52:51.846Z,24.44
2018-05-27T12:53:51.883Z,24.42
2018-05-27T12:55:48.315Z,24.46
2018-05-27T12:56:47.321Z,24.48
2018-05-27T12:58:44.310Z,24.49
2018-05-27T12:59:44.276Z,24.52
2018-05-27T13:01:42.718Z,24.39
2018-05-27T13:02:42.734Z,24.39
2018-05-27T13:04:43.637Z,24.36
2018-05-27T13:05:42.694Z,24.48
2018-05-27T13:07:41.144Z,24.49
2018-05-27T13:08:40.611Z,24.52
2018-05-27T13:10:42.999Z,24.55
2018-05-27T13:11:42.132Z,24.55
2018-05-27T13:13:40.055Z,24.59
2018-05-27T13:14:40.124Z,24.56
2018-05-27T13:16:40.178Z,24.64
2018-05-27T13:17:39.616Z,24.77
2018-05-27T13:19:38.027Z,24.90
2018-05-27T13:20:37.650Z,25.07
2018-05-27T13:22:38.148Z,25.14
2018-05-27T13:23:38.128Z,25.22
2018-05-27T13:25:39.605Z,25.44
2018-05-27T13:26:38.641Z,25.45
2018-05-27T13:28:41.077Z,25.71
2018-05-27T13:29:40.073Z,25.82
2018-05-27T13:31:45.186Z,26.17
2018-05-27T13:32:41.075Z,26.32
2018-05-27T13:34:42.022Z,26.60
2018-05-27T13:35:42.105Z,26.63
2018-05-27T13:37:41.986Z,26.79
2018-05-27T13:38:41.489Z,26.94
2018-05-27T13:40:42.026Z,27.12
2018-05-27T13:41:41.962Z,27.23
2018-05-27T13:43:49.504Z,27.49
2018-05-27T13:44:42.403Z,27.65
2018-05-27T13:46:42.966Z,27.90
2018-05-27T13:47:43.011Z,27.90
2018-05-27T13:49:39.390Z,27.94
2018-05-27T13:50:38.837Z,27.93
2018-05-27T13:52:40.342Z,27.89
2018-05-27T13:53:40.453Z,27.96
2018-05-27T13:55:40.405Z,28.11
2018-05-27T13:56:42.799Z,28.09
2018-05-27T13:58:40.317Z,28.21
2018-05-27T13:59:40.285Z,28.36
2018-05-27T14:01:41.303Z,28.43
2018-05-27T14:02:40.735Z,28.42
2018-05-27T14:04:38.866Z,28.36
2018-05-27T14:05:38.986Z,28.45
2018-05-27T14:07:35.401Z,28.43
2018-05-27T14:08:34.851Z,28.51
2018-05-27T14:10:32.829Z,28.39
2018-05-27T14:11:34.822Z,28.46
2018-05-27T14:13:33.301Z,28.65
2018-05-27T14:14:33.320Z,28.73
2018-05-27T14:16:35.285Z,28.91
2018-05-27T14:17:35.275Z,28.94
2018-05-27T14:19:33.096Z,28.72
2018-05-27T14:20:33.526Z,28.72
2018-05-27T14:22:34.180Z,28.48
2018-05-27T14:23:34.933Z,28.48
2018-05-27T14:25:36.549Z,28.46
2018-05-27T14:26:35.504Z,28.41
2018-05-27T14:28:37.212Z,28.39
2018-05-27T14:29:40.998Z,28.39
2018-05-27T14:31:36.409Z,28.42
2018-05-27T14:32:36.417Z,28.42
2018-05-27T14:34:36.916Z,28.30
2018-05-27T14:35:37.423Z,28.28
2018-05-27T14:37:37.403Z,28.16
2018-05-27T14:38:37.383Z,28.16
2018-05-27T14:40:37.881Z,28.06
2018-05-27T14:41:38.843Z,28.14
2018-05-27T14:43:36.872Z,28.16
2018-05-27T14:44:36.851Z,28.14
2018-05-27T14:46:35.997Z,28.06
2018-05-27T14:47:33.977Z,28.12
2018-05-27T14:49:33.469Z,28.11
2018-05-27T14:50:32.148Z,28.06
2018-05-27T14:52:31.587Z,28.17
2018-05-27T14:53:29.019Z,28.17
2018-05-27T14:55:26.612Z,28.27
2018-05-27T14:56:26.292Z,28.17
2018-05-27T14:58:22.261Z,28.28
2018-05-27T14:59:22.277Z,28.33
2018-05-27T15:01:16.750Z,28.28
2018-05-27T15:02:16.699Z,28.28
2018-05-27T15:04:17.674Z,28.39
2018-05-27T15:05:20.189Z,28.26
2018-05-27T15:07:13.642Z,28.31
2018-05-27T15:08:13.630Z,28.38
2018-05-27T15:10:11.311Z,28.27
2018-05-27T15:11:12.095Z,28.23
2018-05-27T15:13:09.342Z,28.20
2018-05-27T15:14:09.306Z,28.18
2018-05-27T15:16:08.779Z,28.06
2018-05-27T15:17:07.315Z,27.96
2018-05-27T15:19:07.778Z,27.91
2018-05-27T15:20:07.750Z,27.93
2018-05-27T15:22:03.726Z,27.81
2018-05-27T15:24:24.273Z,27.71
2018-05-27T15:25:24.258Z,27.55
2018-05-27T15:27:21.723Z,27.55
2018-05-27T15:29:40.685Z,27.55
2018-05-27T15:30:39.375Z,27.51
2018-05-27T15:32:39.900Z,27.46
2018-05-27T15:33:37.829Z,27.31
2018-05-27T15:35:38.850Z,27.37
2018-05-27T15:36:37.813Z,27.37
2018-05-27T15:38:38.338Z,27.19
2018-05-27T15:39:38.289Z,27.15
2018-05-27T15:41:38.831Z,27.23
2018-05-27T15:42:38.741Z,27.12
2018-05-27T15:44:36.752Z,26.99
2018-05-27T15:45:37.215Z,26.87
2018-05-27T15:47:39.591Z,26.82
2018-05-27T15:48:37.147Z,26.84
2018-05-27T15:50:37.189Z,26.72
2018-05-27T15:51:37.115Z,26.72
2018-05-27T15:53:36.798Z,26.74
2018-05-27T15:54:37.780Z,26.71
2018-05-27T15:56:32.806Z,26.67
2018-05-27T15:57:31.817Z,26.60
2018-05-27T15:59:31.844Z,26.60
2018-05-27T16:00:29.831Z,26.50
2018-05-27T16:02:29.818Z,26.52
2018-05-27T16:03:29.279Z,26.50
2018-05-27T16:05:25.315Z,26.52
2018-05-27T16:06:25.775Z,26.49
2018-05-27T16:08:21.189Z,26.49
2018-05-27T16:09:21.719Z,26.49
2018-05-27T16:11:17.230Z,26.44
2018-05-27T16:12:17.137Z,26.47
2018-05-27T16:14:13.084Z,26.44
2018-05-27T16:15:13.103Z,26.45
2018-05-27T16:17:09.050Z,26.37
2018-05-27T16:18:09.058Z,26.35
2018-05-27T16:20:08.025Z,26.44
2018-05-27T16:21:07.051Z,26.35
2018-05-27T16:23:06.003Z,26.34
2018-05-27T16:24:05.228Z,26.31
2018-05-27T16:26:03.207Z,26.16
2018-05-27T16:27:03.176Z,26.17
2018-05-27T16:28:59.128Z,26.17
2018-05-27T16:29:59.146Z,26.19
2018-05-27T16:31:56.193Z,26.07
2018-05-27T16:32:55.631Z,26.06
2018-05-27T16:34:51.047Z,26.03
2018-05-27T16:35:52.595Z,26.06
2018-05-27T16:37:47.055Z,26.01
2018-05-27T16:38:47.528Z,25.89
2018-05-27T16:40:45.262Z,25.91
2018-05-27T16:41:47.000Z,25.86
2018-05-27T16:43:43.182Z,25.93
2018-05-27T16:44:43.191Z,25.93
2018-05-27T16:46:47.168Z,25.86
2018-05-27T16:47:41.154Z,25.93
2018-05-27T16:49:37.153Z,25.88
2018-05-27T16:50:37.629Z,25.81
2018-05-27T16:52:33.163Z,25.75
2018-05-27T16:53:33.120Z,25.76
2018-05-27T16:55:29.605Z,25.75
2018-05-27T16:56:30.593Z,25.76
2018-05-27T16:58:28.050Z,25.71
2018-05-27T16:59:27.084Z,25.74
2018-05-27T17:01:26.071Z,25.79
2018-05-27T17:02:26.025Z,25.79
2018-05-27T17:04:23.167Z,25.81
2018-05-27T17:05:22.198Z,25.79
2018-05-27T17:07:21.658Z,25.70
2018-05-27T17:08:20.321Z,25.70
2018-05-27T17:10:17.795Z,25.60
2018-05-27T17:11:16.319Z,25.52
2018-05-27T17:13:12.279Z,25.49
2018-05-27T17:14:12.322Z,25.49
2018-05-27T17:16:08.224Z,25.48
2018-05-27T17:17:09.739Z,25.47
2018-05-27T17:19:04.191Z,25.42
2018-05-27T17:20:05.712Z,25.44
2018-05-27T17:22:11.663Z,25.38
2018-05-27T17:24:27.636Z,25.33
2018-05-27T17:26:43.608Z,25.26
2018-05-27T17:27:44.610Z,25.20
2018-05-27T17:29:39.166Z,25.15
2018-05-27T17:30:39.097Z,25.08
2018-05-27T17:32:36.065Z,25.04
2018-05-27T17:33:36.061Z,25.07
2018-05-27T17:35:32.597Z,25.02
2018-05-27T17:36:31.064Z,24.94
2018-05-27T17:38:27.021Z,24.89
2018-05-27T17:39:27.059Z,24.93
2018-05-27T17:41:23.499Z,24.83
2018-05-27T17:42:22.975Z,24.82
2018-05-27T17:44:21.463Z,24.83
2018-05-27T17:45:21.129Z,24.83
2018-05-27T17:47:20.674Z,24.78
2018-05-27T17:48:20.108Z,24.61
2018-05-27T17:50:16.288Z,24.59
2018-05-27T17:51:15.280Z,24.71
2018-05-27T17:53:11.233Z,24.64
2018-05-27T17:54:11.249Z,24.66
2018-05-27T17:56:07.721Z,24.61
2018-05-27T17:57:07.211Z,24.66
2018-05-27T17:59:03.187Z,24.56
2018-05-27T18:00:03.651Z,24.51
2018-05-27T18:01:59.607Z,24.52
2018-05-27T18:02:59.122Z,24.52
2018-05-27T18:04:55.451Z,24.49
2018-05-27T18:05:56.082Z,24.52
2018-05-27T18:07:51.449Z,24.52
2018-05-27T18:10:07.427Z,24.40
2018-05-27T18:11:07.417Z,24.44
2018-05-27T18:13:03.556Z,24.32
2018-05-27T18:14:04.387Z,24.36
2018-05-27T18:16:00.545Z,24.36
2018-05-27T18:16:59.538Z,24.27
2018-05-27T18:18:57.492Z,24.24
2018-05-27T18:19:57.505Z,24.27
2018-05-27T18:21:53.987Z,24.24
2018-05-27T18:22:53.474Z,24.15
2018-05-27T18:24:49.422Z,24.11
2018-05-27T18:25:49.432Z,24.03
2018-05-27T18:27:46.328Z,24.04
2018-05-27T18:28:45.386Z,23.99
2018-05-27T18:30:41.392Z,23.84
2018-05-27T18:31:41.375Z,23.84
2018-05-27T18:33:37.366Z,23.75
2018-05-27T18:34:37.344Z,23.74
2018-05-27T18:36:34.311Z,23.66
2018-05-27T18:37:33.295Z,23.47
2018-05-27T18:39:29.774Z,23.22
2018-05-27T18:40:29.266Z,23.12
2018-05-27T18:42:25.236Z,23.03
2018-05-27T18:44:41.188Z,22.97
2018-05-27T18:45:41.190Z,22.92
2018-05-27T18:47:37.657Z,22.89
2018-05-27T18:48:37.646Z,22.96
2018-05-27T18:50:33.128Z,22.97
2018-05-27T18:51:33.119Z,23.06
2018-05-27T18:53:29.139Z,23.01
2018-05-27T18:54:29.102Z,22.96
2018-05-27T18:56:25.090Z,22.99
2018-05-27T18:57:26.045Z,22.88
2018-05-27T18:59:23.187Z,22.81
2018-05-27T19:00:23.260Z,22.69
2018-05-27T19:02:22.197Z,22.57
2018-05-27T19:03:23.105Z,22.57
2018-05-27T19:05:20.164Z,22.55
2018-05-27T19:06:19.140Z,22.54
2018-05-27T19:08:15.222Z,22.46
2018-05-27T19:09:15.232Z,22.38
2018-05-27T19:11:11.706Z,22.24